Time;durP1;ratioP1;P1;durP2;ratioP2;P2;SDS_P1;SDS_P2;PMS_P1;PMS_P2;Temp;Humidity;BMP_temperature;BMP_pressure;BME280_temperature;BME280_humidity;BME280_pressure;Samples;Min_cycle;Max_cycle;Signal;HPM_P1;HPM_P2
2023/12/11 00:01:44;;;;;;;6.83;5.10;;;8.50;99.90;;;;;;496413;238;28476;-72
2023/12/11 00:03:45;;;;;;;4.70;4.10;;;8.50;99.90;;;;;;496422;238;28557;-73
2023/12/11 00:05:47;;;;;;;4.33;3.40;;;8.60;99.90;;;;;;496383;238;28028;-72
2023/12/11 00:07:47;;;;;;;5.37;4.87;;;8.60;99.90;;;;;;496395;238;27949;-72
2023/12/11 00:09:49;;;;;;;3.70;3.40;;;8.60;99.90;;;;;;496418;238;27968;-75
2023/12/11 00:11:50;;;;;;;4.07;3.70;;;8.60;99.90;;;;;;496250;238;28045;-72
2023/12/11 00:13:51;;;;;;;3.33;3.03;;;8.60;99.90;;;;;;496455;238;27859;-73
2023/12/11 00:15:53;;;;;;;4.63;2.43;;;8.60;99.90;;;;;;496404;238;27557;-72
2023/12/11 00:17:54;;;;;;;5.23;2.40;;;8.60;99.90;;;;;;496357;238;27962;-72
2023/12/11 00:19:55;;;;;;;6.63;2.97;;;8.70;99.90;;;;;;496498;238;27712;-73
2023/12/11 00:21:56;;;;;;;3.10;2.37;;;8.70;99.90;;;;;;496452;238;27895;-74
2023/12/11 00:23:57;;;;;;;2.93;2.37;;;8.60;99.90;;;;;;496413;238;27837;-72
2023/12/11 00:25:59;;;;;;;4.27;1.90;;;8.70;99.90;;;;;;496421;238;27547;-72
2023/12/11 00:28:00;;;;;;;2.90;2.00;;;8.70;99.90;;;;;;496454;238;27899;-73
2023/12/11 00:30:01;;;;;;;8.27;2.33;;;8.70;99.90;;;;;;496457;238;27589;-73
2023/12/11 00:32:03;;;;;;;3.87;2.10;;;8.70;99.90;;;;;;496415;239;27777;-72
2023/12/11 00:34:04;;;;;;;3.73;2.07;;;8.70;99.90;;;;;;496450;238;28566;-74
2023/12/11 00:36:05;;;;;;;2.73;1.90;;;8.70;99.90;;;;;;496488;238;29128;-73
2023/12/11 00:38:06;;;;;;;3.90;2.20;;;8.70;99.90;;;;;;496483;238;28451;-73
2023/12/11 00:40:07;;;;;;;4.80;2.13;;;8.70;99.90;;;;;;496408;238;28547;-72
2023/12/11 00:42:09;;;;;;;2.70;2.20;;;8.70;99.90;;;;;;496493;238;28418;-73
2023/12/11 00:44:10;;;;;;;2.60;2.07;;;8.80;99.90;;;;;;496502;238;28389;-72
2023/12/11 00:46:11;;;;;;;5.60;2.07;;;8.80;99.90;;;;;;496478;239;27955;-73
2023/12/11 00:48:13;;;;;;;4.23;2.20;;;8.70;99.90;;;;;;496478;238;27915;-72
2023/12/11 00:50:14;;;;;;;6.53;2.10;;;8.80;99.90;;;;;;496461;238;28191;-72
2023/12/11 00:52:15;;;;;;;3.30;2.10;;;8.80;99.90;;;;;;496388;239;27873;-72
2023/12/11 00:54:16;;;;;;;1.70;1.60;;;8.80;99.90;;;;;;496492;238;27937;-72
2023/12/11 00:56:17;;;;;;;4.07;2.10;;;8.80;99.90;;;;;;496486;238;28131;-74
2023/12/11 00:58:19;;;;;;;5.90;2.17;;;8.80;99.90;;;;;;496431;239;28015;-72
2023/12/11 01:00:20;;;;;;;4.50;1.83;;;8.80;99.90;;;;;;496415;238;27959;-72
2023/12/11 01:02:21;;;;;;;2.67;1.77;;;8.80;99.90;;;;;;496473;238;27930;-72
2023/12/11 01:04:22;;;;;;;4.57;1.70;;;8.80;99.90;;;;;;496458;238;27911;-72
2023/12/11 01:06:24;;;;;;;3.97;1.90;;;8.80;99.90;;;;;;496485;238;28003;-72
2023/12/11 01:08:30;;;;;;;5.00;2.20;;;8.90;99.90;;;;;;496481;238;28082;-72
2023/12/11 01:10:26;;;;;;;2.30;1.80;;;8.90;99.90;;;;;;495875;239;28554;-72
2023/12/11 01:12:28;;;;;;;3.53;1.80;;;8.90;99.90;;;;;;496358;239;27920;-73
2023/12/11 01:14:29;;;;;;;3.17;1.83;;;8.90;99.90;;;;;;496283;238;28481;-73
2023/12/11 01:16:30;;;;;;;7.33;2.00;;;8.90;99.90;;;;;;496293;238;28488;-72
2023/12/11 01:18:32;;;;;;;1.80;1.67;;;8.80;99.90;;;;;;496416;239;28601;-73
2023/12/11 01:20:33;;;;;;;4.50;1.90;;;8.80;99.90;;;;;;496416;238;27727;-72
2023/12/11 01:22:34;;;;;;;2.53;2.30;;;8.80;99.90;;;;;;496440;238;28088;-71
2023/12/11 01:24:35;;;;;;;3.57;1.70;;;8.90;99.90;;;;;;496513;238;28003;-74
2023/12/11 01:26:37;;;;;;;4.30;1.80;;;8.80;99.90;;;;;;496422;239;27929;-71
2023/12/11 01:28:38;;;;;;;5.03;1.77;;;8.90;99.90;;;;;;496456;238;27942;-73
2023/12/11 01:30:39;;;;;;;3.73;1.80;;;8.90;99.90;;;;;;496396;238;27853;-72
2023/12/11 01:32:40;;;;;;;2.47;2.00;;;8.80;99.90;;;;;;496380;238;27845;-72
2023/12/11 01:34:42;;;;;;;5.47;2.27;;;8.90;99.90;;;;;;496381;238;28210;-72
2023/12/11 01:36:43;;;;;;;3.00;2.27;;;8.80;99.90;;;;;;496381;239;28153;-73
2023/12/11 01:38:44;;;;;;;6.00;2.67;;;8.70;99.90;;;;;;496454;238;28045;-73
2023/12/11 01:40:45;;;;;;;9.03;2.97;;;8.70;99.90;;;;;;496483;238;27915;-72
2023/12/11 01:42:47;;;;;;;2.50;1.90;;;8.70;99.90;;;;;;496518;238;27854;-72
2023/12/11 01:44:48;;;;;;;5.47;4.00;;;8.70;99.90;;;;;;496439;238;27956;-75
2023/12/11 01:46:49;;;;;;;7.83;4.97;;;8.70;99.90;;;;;;496481;238;27433;-72
2023/12/11 01:48:50;;;;;;;4.33;2.80;;;8.80;99.90;;;;;;496473;238;27736;-73
2023/12/11 01:50:52;;;;;;;6.17;4.97;;;8.80;99.90;;;;;;496444;238;27907;-72
2023/12/11 01:52:53;;;;;;;9.83;5.37;;;8.80;99.90;;;;;;496519;238;27951;-72
2023/12/11 01:54:54;;;;;;;9.73;3.23;;;8.80;99.90;;;;;;496461;238;27954;-74
2023/12/11 01:56:55;;;;;;;5.30;2.60;;;8.80;99.90;;;;;;496444;238;27680;-71
2023/12/11 01:58:57;;;;;;;4.87;3.70;;;8.70;99.90;;;;;;496476;238;27923;-72
2023/12/11 02:00:58;;;;;;;3.87;2.53;;;8.70;99.90;;;;;;496439;238;27790;-71
2023/12/11 02:02:59;;;;;;;3.83;2.33;;;8.80;99.90;;;;;;496526;238;27753;-72
2023/12/11 02:05:00;;;;;;;7.37;2.00;;;8.80;99.90;;;;;;496466;238;28362;-72
2023/12/11 02:07:02;;;;;;;3.10;1.93;;;8.80;99.90;;;;;;496479;238;28320;-72
2023/12/11 02:09:03;;;;;;;4.03;1.83;;;8.80;99.90;;;;;;496492;238;28330;-72
2023/12/11 02:11:04;;;;;;;5.00;1.83;;;8.80;99.90;;;;;;496474;238;28558;-72
2023/12/11 02:13:05;;;;;;;4.53;1.90;;;8.80;99.90;;;;;;496476;238;28506;-72
2023/12/11 02:15:07;;;;;;;3.40;1.60;;;8.80;99.90;;;;;;496516;238;28067;-73
2023/12/11 02:17:08;;;;;;;4.50;1.70;;;8.80;99.90;;;;;;496470;238;27937;-72
2023/12/11 02:19:09;;;;;;;2.87;1.80;;;8.70;99.90;;;;;;496505;238;27610;-72
2023/12/11 02:21:10;;;;;;;4.23;2.07;;;8.70;99.90;;;;;;496503;238;27850;-73
2023/12/11 02:23:12;;;;;;;4.70;1.97;;;8.70;99.90;;;;;;496513;238;28009;-72
2023/12/11 02:25:14;;;;;;;2.47;1.70;;;8.70;99.90;;;;;;496466;238;27948;-73
2023/12/11 02:27:15;;;;;;;2.67;1.73;;;8.60;99.90;;;;;;496388;239;27982;-73
2023/12/11 02:29:16;;;;;;;6.07;1.70;;;8.60;99.90;;;;;;496500;238;27965;-72
2023/12/11 02:31:18;;;;;;;5.30;2.30;;;8.70;99.90;;;;;;496506;238;27983;-72
2023/12/11 02:33:19;;;;;;;4.17;2.27;;;8.60;99.90;;;;;;496519;238;27713;-74
2023/12/11 02:35:20;;;;;;;3.07;1.80;;;8.60;99.90;;;;;;496495;238;28018;-72
2023/12/11 02:37:21;;;;;;;4.67;1.90;;;8.60;99.90;;;;;;496435;238;27948;-72
2023/12/11 02:39:23;;;;;;;5.13;2.00;;;8.60;99.90;;;;;;496429;238;27446;-72
2023/12/11 02:41:24;;;;;;;8.53;1.97;;;8.60;99.90;;;;;;496469;238;28447;-72
2023/12/11 02:43:25;;;;;;;4.00;2.00;;;8.60;99.90;;;;;;496462;238;28464;-72
2023/12/11 02:45:26;;;;;;;6.40;1.63;;;8.70;99.90;;;;;;496465;238;28333;-73
2023/12/11 02:47:27;;;;;;;3.90;2.07;;;8.70;99.90;;;;;;496441;238;28296;-72
2023/12/11 02:49:29;;;;;;;4.83;1.77;;;8.60;99.90;;;;;;496456;238;28760;-73
2023/12/11 02:51:30;;;;;;;2.33;1.33;;;8.70;99.90;;;;;;496449;238;28382;-72
2023/12/11 02:53:31;;;;;;;6.80;2.23;;;8.70;99.90;;;;;;496497;238;27948;-73
2023/12/11 02:55:32;;;;;;;8.10;2.43;;;8.70;99.90;;;;;;496435;238;27830;-72
2023/12/11 02:57:34;;;;;;;6.40;1.97;;;8.70;99.90;;;;;;496414;238;27966;-72
2023/12/11 02:59:35;;;;;;;10.33;3.83;;;8.70;99.90;;;;;;496534;238;28101;-73
2023/12/11 03:01:36;;;;;;;9.93;2.57;;;8.70;99.90;;;;;;496453;238;28048;-72
2023/12/11 03:03:37;;;;;;;4.00;1.93;;;8.80;99.90;;;;;;496427;238;27904;-72
2023/12/11 03:05:39;;;;;;;6.63;1.80;;;8.80;99.90;;;;;;496436;238;27925;-72
2023/12/11 03:07:40;;;;;;;5.53;2.50;;;8.80;99.90;;;;;;496433;239;28047;-72
2023/12/11 03:09:41;;;;;;;9.10;2.60;;;8.70;99.90;;;;;;496443;238;27530;-74
2023/12/11 03:11:42;;;;;;;4.43;2.30;;;8.80;99.90;;;;;;496415;239;28033;-72
2023/12/11 03:13:44;;;;;;;2.97;2.10;;;8.80;99.90;;;;;;496386;238;27632;-72
2023/12/11 03:15:45;;;;;;;7.00;2.63;;;8.80;99.90;;;;;;496411;238;27580;-72
2023/12/11 03:17:47;;;;;;;4.27;2.40;;;8.90;99.90;;;;;;496454;238;27895;-71
2023/12/11 03:19:47;;;;;;;8.50;2.60;;;8.90;99.90;;;;;;496474;238;28477;-73
2023/12/11 03:21:49;;;;;;;7.80;2.30;;;8.90;99.90;;;;;;496446;238;28494;-72
2023/12/11 03:23:50;;;;;;;3.80;2.37;;;8.90;99.90;;;;;;496446;238;28524;-72
2023/12/11 03:25:51;;;;;;;4.93;2.63;;;8.90;99.90;;;;;;496403;238;28628;-72
2023/12/11 03:27:52;;;;;;;8.50;2.60;;;8.90;99.90;;;;;;496480;238;28497;-72
2023/12/11 03:29:54;;;;;;;9.33;3.60;;;8.90;99.90;;;;;;496489;238;28451;-72
2023/12/11 03:31:55;;;;;;;5.60;2.90;;;8.90;99.90;;;;;;496517;238;27842;-72
2023/12/11 03:33:56;;;;;;;4.00;2.77;;;9.00;99.90;;;;;;496420;238;27968;-73
2023/12/11 03:35:57;;;;;;;5.30;4.23;;;9.00;99.90;;;;;;496421;238;28186;-73
2023/12/11 03:37:59;;;;;;;4.43;2.73;;;9.00;99.90;;;;;;496419;238;27438;-72
2023/12/11 03:40:00;;;;;;;12.00;6.87;;;9.00;99.90;;;;;;496350;239;28041;-72
2023/12/11 03:42:01;;;;;;;10.00;7.70;;;9.00;99.90;;;;;;496444;238;27557;-72
2023/12/11 03:44:03;;;;;;;8.33;7.73;;;9.10;99.90;;;;;;496391;238;27916;-72
2023/12/11 03:46:04;;;;;;;9.93;6.37;;;9.10;99.90;;;;;;496400;239;28368;-72
2023/12/11 03:48:06;;;;;;;4.23;3.80;;;9.10;99.90;;;;;;496446;238;27731;-74
2023/12/11 03:50:07;;;;;;;4.00;3.30;;;9.10;99.90;;;;;;496482;238;27915;-72
2023/12/11 03:52:08;;;;;;;7.77;6.70;;;9.10;99.90;;;;;;496445;238;27816;-72
2023/12/11 03:54:09;;;;;;;11.83;10.83;;;9.10;99.90;;;;;;496427;238;28010;-72
2023/12/11 03:56:11;;;;;;;9.10;7.53;;;9.10;99.90;;;;;;496448;238;28075;-72
2023/12/11 03:58:12;;;;;;;6.33;5.73;;;9.10;99.90;;;;;;496434;238;28384;-72
2023/12/11 04:00:14;;;;;;;5.93;3.20;;;9.10;99.90;;;;;;496452;238;28002;-72
2023/12/11 04:02:14;;;;;;;5.80;3.50;;;9.20;99.90;;;;;;496413;238;28269;-72
2023/12/11 04:04:16;;;;;;;3.20;2.90;;;9.20;99.90;;;;;;496428;238;27862;-72
2023/12/11 04:06:17;;;;;;;3.50;3.20;;;9.20;99.90;;;;;;496433;238;27823;-71
2023/12/11 04:08:18;;;;;;;10.43;3.00;;;9.20;99.90;;;;;;496467;238;28019;-72
2023/12/11 04:10:19;;;;;;;4.33;2.97;;;9.20;99.90;;;;;;496433;238;28115;-72
2023/12/11 04:12:21;;;;;;;3.83;2.57;;;9.20;99.90;;;;;;496446;238;27856;-72
2023/12/11 04:14:22;;;;;;;5.93;2.53;;;9.20;99.90;;;;;;496456;238;27877;-72
2023/12/11 04:16:23;;;;;;;4.33;2.40;;;9.20;99.90;;;;;;496514;238;27903;-73
2023/12/11 04:18:24;;;;;;;3.00;2.40;;;9.30;99.90;;;;;;496449;238;28158;-73
2023/12/11 04:20:26;;;;;;;2.20;2.10;;;9.30;99.90;;;;;;496401;238;27843;-72
2023/12/11 04:22:27;;;;;;;2.53;2.33;;;9.30;99.90;;;;;;496448;238;27592;-72
2023/12/11 04:24:28;;;;;;;3.30;2.70;;;9.40;99.90;;;;;;496468;238;27939;-74
2023/12/11 04:26:29;;;;;;;2.03;1.93;;;9.40;99.90;;;;;;496464;238;27812;-72
2023/12/11 04:28:31;;;;;;;2.20;2.00;;;9.40;99.90;;;;;;496435;238;27791;-73
2023/12/11 04:30:33;;;;;;;1.90;1.80;;;9.40;99.90;;;;;;496453;238;27693;-72
2023/12/11 04:32:35;;;;;;;3.00;2.10;;;9.40;99.90;;;;;;496475;238;28103;-73
2023/12/11 04:34:36;;;;;;;2.10;2.00;;;9.40;99.90;;;;;;496447;238;27928;-72
2023/12/11 04:36:37;;;;;;;1.93;1.83;;;9.40;99.90;;;;;;496400;238;28093;-72
2023/12/11 04:38:38;;;;;;;3.17;2.30;;;9.40;99.90;;;;;;496443;238;27975;-74
2023/12/11 04:40:40;;;;;;;2.10;1.90;;;9.40;99.90;;;;;;496399;238;28145;-72
2023/12/11 04:42:41;;;;;;;3.73;2.23;;;9.40;99.90;;;;;;496479;238;28464;-72
2023/12/11 04:44:42;;;;;;;3.20;2.10;;;9.50;99.90;;;;;;496440;238;28377;-72
2023/12/11 04:46:43;;;;;;;4.83;2.17;;;9.50;99.90;;;;;;496440;238;28381;-72
2023/12/11 04:48:45;;;;;;;2.57;2.27;;;9.50;99.90;;;;;;496451;238;29337;-72
2023/12/11 04:50:46;;;;;;;5.20;2.13;;;9.50;99.90;;;;;;496276;239;28045;-72
2023/12/11 04:52:47;;;;;;;4.73;2.00;;;9.50;99.90;;;;;;496438;238;27958;-72
2023/12/11 04:54:49;;;;;;;6.90;2.40;;;9.50;99.90;;;;;;483431;238;27922;-72
2023/12/11 04:56:51;;;;;;;3.30;2.30;;;9.50;99.90;;;;;;490959;242;27922;-73
2023/12/11 04:58:53;;;;;;;3.33;1.90;;;9.50;99.90;;;;;;491516;241;28553;-72
2023/12/11 05:00:54;;;;;;;6.60;2.53;;;9.50;99.90;;;;;;491548;240;28025;-72
2023/12/11 05:02:56;;;;;;;5.73;3.93;;;9.50;99.90;;;;;;491659;240;28267;-72
2023/12/11 05:04:57;;;;;;;4.83;2.80;;;9.50;99.90;;;;;;491590;241;28528;-73
2023/12/11 05:06:58;;;;;;;3.37;2.13;;;9.50;99.90;;;;;;491602;240;28725;-72
2023/12/11 05:08:59;;;;;;;6.83;1.90;;;9.50;99.90;;;;;;491682;240;28463;-72
2023/12/11 05:11:01;;;;;;;3.80;1.93;;;9.50;99.90;;;;;;491673;240;29228;-72
2023/12/11 05:13:02;;;;;;;10.80;2.17;;;9.60;99.90;;;;;;491680;240;28141;-72
2023/12/11 05:15:03;;;;;;;5.60;2.00;;;9.50;99.90;;;;;;491644;240;28003;-72
2023/12/11 05:17:04;;;;;;;6.07;2.13;;;9.50;99.90;;;;;;491690;240;27923;-73
2023/12/11 05:19:06;;;;;;;5.47;1.97;;;9.50;99.90;;;;;;491630;240;28143;-73
2023/12/11 05:21:07;;;;;;;3.23;1.63;;;9.50;99.90;;;;;;491669;240;27871;-72
2023/12/11 05:23:08;;;;;;;3.53;1.60;;;9.40;99.90;;;;;;491712;240;27925;-72
2023/12/11 05:25:09;;;;;;;2.03;1.83;;;9.40;99.90;;;;;;491689;240;28052;-73
2023/12/11 05:27:12;;;;;;;6.47;2.00;;;9.50;99.90;;;;;;491685;240;28004;-72
2023/12/11 05:29:12;;;;;;;4.63;1.73;;;9.50;99.90;;;;;;491651;241;27849;-72
2023/12/11 05:31:13;;;;;;;3.60;1.77;;;9.40;99.90;;;;;;491744;240;27928;-72
2023/12/11 05:33:14;;;;;;;6.47;2.10;;;9.50;99.90;;;;;;491710;240;27665;-71
2023/12/11 05:35:16;;;;;;;6.60;1.97;;;9.50;99.90;;;;;;491688;240;27837;-72
2023/12/11 05:37:17;;;;;;;8.60;2.50;;;9.50;99.90;;;;;;491639;240;27665;-72
2023/12/11 05:39:18;;;;;;;3.90;1.90;;;9.40;99.90;;;;;;491628;242;27951;-72
2023/12/11 05:41:19;;;;;;;5.23;2.60;;;9.40;99.90;;;;;;491633;240;28172;-72
2023/12/11 05:43:21;;;;;;;10.60;8.47;;;9.40;99.90;;;;;;491691;240;28464;-72
2023/12/11 05:45:22;;;;;;;5.90;4.53;;;9.50;99.90;;;;;;491649;240;28634;-73
2023/12/11 05:47:23;;;;;;;5.90;4.40;;;9.50;99.90;;;;;;491626;241;29089;-72
2023/12/11 05:49:24;;;;;;;6.63;5.70;;;9.40;99.90;;;;;;491680;240;28314;-72
2023/12/11 05:51:27;;;;;;;4.93;3.53;;;9.50;99.90;;;;;;491648;240;27960;-73
2023/12/11 05:53:27;;;;;;;3.63;2.87;;;9.40;99.90;;;;;;499646;235;27932;-72
2023/12/11 05:55:28;;;;;;;4.00;3.60;;;9.50;99.90;;;;;;502172;236;27624;-72
2023/12/11 05:57:29;;;;;;;10.23;2.90;;;9.50;99.90;;;;;;502185;236;27830;-72
2023/12/11 05:59:31;;;;;;;3.70;2.67;;;9.50;99.90;;;;;;505849;235;27807;-72
2023/12/11 06:01:32;;;;;;;5.53;2.70;;;9.50;99.90;;;;;;506318;234;27707;-74
2023/12/11 06:03:34;;;;;;;3.87;2.73;;;9.50;99.90;;;;;;506151;234;27823;-72
2023/12/11 06:05:34;;;;;;;5.23;3.90;;;9.50;99.90;;;;;;506296;234;27941;-73
2023/12/11 06:07:36;;;;;;;5.90;4.80;;;9.50;99.90;;;;;;506251;235;28171;-74
2023/12/11 06:09:37;;;;;;;4.47;3.40;;;9.40;99.90;;;;;;492590;234;27784;-72
2023/12/11 06:11:38;;;;;;;11.87;10.67;;;9.40;99.90;;;;;;482809;245;27932;-72
2023/12/11 06:13:39;;;;;;;4.13;3.70;;;9.40;99.90;;;;;;479129;242;27932;-72
2023/12/11 06:15:41;;;;;;;5.47;3.53;;;9.40;99.90;;;;;;480288;247;28269;-74
2023/12/11 06:17:42;;;;;;;5.70;2.97;;;9.40;99.90;;;;;;480327;247;27875;-72
2023/12/11 06:19:43;;;;;;;2.87;2.60;;;9.40;99.90;;;;;;486427;244;27499;-72
2023/12/11 06:21:45;;;;;;;4.10;2.80;;;9.40;99.90;;;;;;486600;244;27647;-72
2023/12/11 06:23:46;;;;;;;6.07;2.20;;;9.40;99.90;;;;;;488357;242;27938;-74
2023/12/11 06:25:47;;;;;;;5.47;2.40;;;9.40;99.90;;;;;;490328;242;27935;-73
2023/12/11 06:27:48;;;;;;;3.53;1.90;;;9.40;99.90;;;;;;490336;242;28065;-73
2023/12/11 06:29:50;;;;;;;4.27;1.90;;;9.40;99.90;;;;;;489876;242;27992;-72
2023/12/11 06:31:51;;;;;;;4.90;2.63;;;9.50;99.90;;;;;;489976;243;27995;-72
2023/12/11 06:33:52;;;;;;;6.80;2.60;;;9.40;99.90;;;;;;505688;235;27767;-73
2023/12/11 06:35:53;;;;;;;5.50;1.80;;;9.40;99.90;;;;;;506304;234;27657;-72
2023/12/11 06:37:55;;;;;;;5.67;2.30;;;9.40;99.90;;;;;;506315;234;27633;-72
2023/12/11 06:39:56;;;;;;;7.60;2.33;;;9.40;99.90;;;;;;506328;234;27820;-72
2023/12/11 06:41:57;;;;;;;7.43;2.50;;;9.40;99.90;;;;;;506085;235;27887;-72
2023/12/11 06:43:58;;;;;;;6.87;2.17;;;9.40;99.90;;;;;;505933;234;28509;-73
2023/12/11 06:46:00;;;;;;;6.57;2.37;;;9.40;99.90;;;;;;505854;234;27936;-73
2023/12/11 06:48:01;;;;;;;8.10;2.73;;;9.40;99.90;;;;;;505836;234;27762;-74
2023/12/11 06:50:02;;;;;;;5.80;2.30;;;9.40;99.90;;;;;;506247;234;27947;-74
2023/12/11 06:52:03;;;;;;;11.93;2.17;;;9.40;99.90;;;;;;506339;234;27799;-72
2023/12/11 06:54:05;;;;;;;5.30;2.47;;;9.40;99.90;;;;;;506294;234;27777;-72
2023/12/11 06:56:06;;;;;;;5.57;2.33;;;9.40;99.90;;;;;;506256;234;27419;-72
2023/12/11 06:58:07;;;;;;;9.10;2.10;;;9.40;99.90;;;;;;506338;234;27787;-72
2023/12/11 07:00:09;;;;;;;8.40;2.60;;;9.40;99.90;;;;;;506320;234;27554;-73
2023/12/11 07:02:10;;;;;;;5.73;2.53;;;9.40;99.90;;;;;;506348;234;27434;-72
2023/12/11 07:04:11;;;;;;;6.97;2.40;;;9.40;99.90;;;;;;506281;234;27838;-73
2023/12/11 07:06:12;;;;;;;10.17;4.97;;;9.30;99.90;;;;;;506311;234;27871;-73
2023/12/11 07:08:13;;;;;;;3.80;3.20;;;9.30;99.90;;;;;;506268;234;27700;-72
2023/12/11 07:10:15;;;;;;;8.60;4.40;;;9.30;99.90;;;;;;506387;234;27654;-72
2023/12/11 07:12:16;;;;;;;7.93;3.10;;;9.30;99.90;;;;;;505345;235;27811;-72
2023/12/11 07:14:18;;;;;;;4.73;2.30;;;9.30;99.90;;;;;;491646;241;28440;-73
2023/12/11 07:16:18;;;;;;;9.77;2.07;;;9.30;99.90;;;;;;491657;240;28351;-72
2023/12/11 07:18:21;;;;;;;4.90;2.50;;;9.30;99.90;;;;;;491724;240;28151;-73
2023/12/11 07:20:22;;;;;;;5.73;2.33;;;9.20;99.90;;;;;;491590;242;28529;-73
2023/12/11 07:22:22;;;;;;;7.53;2.10;;;9.20;99.90;;;;;;491581;241;28443;-73
2023/12/11 07:24:23;;;;;;;4.37;2.00;;;9.20;99.90;;;;;;491649;240;28390;-73
2023/12/11 07:26:25;;;;;;;4.17;2.07;;;9.20;99.90;;;;;;491657;241;28044;-74
2023/12/11 07:28:26;;;;;;;5.97;1.90;;;9.30;99.90;;;;;;491729;240;27968;-73
2023/12/11 07:30:27;;;;;;;9.73;3.20;;;9.30;99.90;;;;;;491622;241;27871;-73
2023/12/11 07:32:28;;;;;;;3.30;2.13;;;9.30;99.90;;;;;;491673;240;27800;-73
2023/12/11 07:34:30;;;;;;;3.07;1.93;;;9.30;99.90;;;;;;491566;242;28064;-73
2023/12/11 07:36:31;;;;;;;6.53;1.83;;;9.30;99.90;;;;;;503562;235;28028;-74
2023/12/11 07:38:32;;;;;;;6.53;2.20;;;9.30;99.90;;;;;;505258;235;27678;-71
2023/12/11 07:40:33;;;;;;;5.20;2.10;;;9.30;99.90;;;;;;505942;234;27600;-73
2023/12/11 07:42:35;;;;;;;9.00;2.17;;;9.30;99.90;;;;;;489123;240;27961;-73
2023/12/11 07:44:39;;;;;;;4.47;1.80;;;9.30;99.90;;;;;;503618;232;29315;-72
2023/12/11 07:46:41;;;;;;;5.03;1.90;;;9.30;99.90;;;;;;488683;239;27988;-71
2023/12/11 07:48:42;;;;;;;6.67;4.20;;;9.30;99.90;;;;;;488769;241;27975;-72
2023/12/11 07:50:43;;;;;;;7.60;4.27;;;9.30;99.90;;;;;;493202;239;27624;-74
2023/12/11 07:52:44;;;;;;;4.57;2.60;;;9.40;99.90;;;;;;487067;239;28440;-72
2023/12/11 07:54:46;;;;;;;9.30;6.80;;;9.40;99.90;;;;;;490923;240;28143;-74
2023/12/11 07:56:51;;;;;;;7.40;2.90;;;9.30;99.90;;;;;;486662;242;28342;-73
2023/12/11 07:59:03;;;;;;;14.13;3.43;;;9.20;99.90;;;;;;490031;236;27941;-73
2023/12/11 08:01:04;;;;;;;6.00;2.80;;;9.30;99.90;;;;;;492250;239;27959;-73
2023/12/11 08:03:06;;;;;;;10.17;2.50;;;9.30;99.90;;;;;;492847;240;27596;-73
2023/12/11 08:05:09;;;;;;;5.80;2.40;;;9.20;99.90;;;;;;493657;239;27986;-72
2023/12/11 08:07:09;;;;;;;6.10;2.60;;;9.20;99.90;;;;;;491500;239;28070;-72
2023/12/11 08:09:11;;;;;;;8.50;2.53;;;9.30;99.90;;;;;;488856;239;27885;-75
2023/12/11 08:11:11;;;;;;;4.80;2.00;;;9.30;99.90;;;;;;491789;240;27644;-72
2023/12/11 08:13:12;;;;;;;9.90;2.50;;;9.30;99.90;;;;;;491773;239;27686;-72
2023/12/11 08:15:15;;;;;;;3.33;2.07;;;9.30;99.90;;;;;;489457;239;27844;-77
2023/12/11 08:17:15;;;;;;;8.73;2.47;;;9.40;99.90;;;;;;505910;232;27918;-72
2023/12/11 08:19:16;;;;;;;12.63;2.00;;;9.40;99.90;;;;;;489014;239;27951;-73
2023/12/11 08:21:17;;;;;;;5.77;1.90;;;9.40;99.90;;;;;;507764;232;27879;-73
2023/12/11 08:23:18;;;;;;;10.90;2.63;;;9.40;99.90;;;;;;504139;232;28038;-74
2023/12/11 08:25:20;;;;;;;6.00;2.00;;;9.40;99.90;;;;;;503837;232;27683;-74
2023/12/11 08:27:21;;;;;;;7.97;2.33;;;9.40;99.90;;;;;;490232;239;27926;-73
2023/12/11 08:29:25;;;;;;;7.83;2.17;;;9.40;99.90;;;;;;500848;232;28606;-74
2023/12/11 08:31:25;;;;;;;8.93;2.30;;;9.50;99.90;;;;;;491518;236;28399;-72
2023/12/11 08:33:26;;;;;;;10.93;2.53;;;9.50;99.90;;;;;;506178;232;27890;-73
2023/12/11 08:35:28;;;;;;;5.83;2.03;;;9.50;99.90;;;;;;491828;240;27958;-74
2023/12/11 08:37:29;;;;;;;7.60;2.77;;;9.60;99.90;;;;;;490656;241;27791;-73
2023/12/11 08:39:30;;;;;;;7.20;2.00;;;9.60;99.90;;;;;;490949;239;27933;-73
2023/12/11 08:41:32;;;;;;;9.50;4.70;;;9.70;99.90;;;;;;493230;240;27760;-73
2023/12/11 08:43:33;;;;;;;4.77;2.57;;;9.70;99.90;;;;;;492679;239;27795;-73
2023/12/11 08:45:34;;;;;;;7.07;3.60;;;9.70;99.90;;;;;;489651;240;28094;-74
2023/12/11 08:47:35;;;;;;;12.57;2.97;;;9.60;99.90;;;;;;487345;240;28037;-73
2023/12/11 08:49:37;;;;;;;6.70;2.70;;;9.60;99.90;;;;;;487248;244;27961;-72
2023/12/11 08:51:38;;;;;;;8.57;2.40;;;9.60;99.90;;;;;;487001;242;27993;-72
2023/12/11 08:53:39;;;;;;;7.83;2.20;;;9.60;99.90;;;;;;487312;242;27780;-72
2023/12/11 08:55:41;;;;;;;8.97;2.43;;;9.70;99.90;;;;;;485700;242;27835;-74
2023/12/11 08:57:42;;;;;;;4.67;2.17;;;9.60;99.90;;;;;;506010;234;27939;-73
2023/12/11 08:59:43;;;;;;;11.67;2.80;;;9.60;99.90;;;;;;486973;244;27935;-74
2023/12/11 09:01:44;;;;;;;14.60;3.50;;;9.60;99.90;;;;;;485878;243;27724;-73
2023/12/11 09:03:45;;;;;;;6.10;2.40;;;9.60;99.90;;;;;;487646;243;28120;-74
2023/12/11 09:05:47;;;;;;;21.57;3.10;;;9.60;99.90;;;;;;506165;234;28001;-74
2023/12/11 09:07:48;;;;;;;13.43;3.00;;;9.60;99.90;;;;;;506101;234;27499;-72
2023/12/11 09:09:49;;;;;;;8.23;2.37;;;9.60;99.90;;;;;;506214;234;27955;-72
2023/12/11 09:11:51;;;;;;;5.70;2.10;;;9.50;99.90;;;;;;506054;234;27851;-74
2023/12/11 09:13:52;;;;;;;11.47;2.47;;;9.70;99.90;;;;;;506180;234;27767;-74
2023/12/11 09:15:53;;;;;;;8.40;2.20;;;9.70;99.90;;;;;;497199;238;28447;-73
2023/12/11 09:17:54;;;;;;;9.00;2.17;;;9.70;99.90;;;;;;497072;239;28828;-74
2023/12/11 09:19:55;;;;;;;13.00;3.03;;;9.80;99.90;;;;;;497204;239;28509;-73
2023/12/11 09:21:57;;;;;;;17.97;3.20;;;9.80;99.90;;;;;;497197;239;28618;-72
2023/12/11 09:23:58;;;;;;;10.00;2.97;;;9.90;99.90;;;;;;496407;235;27869;-72
2023/12/11 09:25:59;;;;;;;12.67;3.27;;;9.90;99.90;;;;;;494092;239;27959;-72
2023/12/11 09:28:00;;;;;;;10.50;3.07;;;10.00;99.90;;;;;;494121;240;27834;-73
2023/12/11 09:30:02;;;;;;;13.27;3.03;;;10.00;99.90;;;;;;494167;240;27989;-73
2023/12/11 09:32:03;;;;;;;10.77;3.00;;;10.10;99.90;;;;;;494125;240;28063;-73
2023/12/11 09:34:04;;;;;;;11.47;2.73;;;10.10;99.90;;;;;;503950;235;27849;-73
2023/12/11 09:36:05;;;;;;;11.67;4.30;;;10.10;99.90;;;;;;504994;235;27977;-72
2023/12/11 09:38:07;;;;;;;11.53;2.70;;;10.20;99.90;;;;;;505279;235;28102;-74
2023/12/11 09:40:08;;;;;;;12.63;2.90;;;10.20;99.90;;;;;;505222;235;28262;-73
2023/12/11 09:42:09;;;;;;;12.60;2.83;;;10.30;99.90;;;;;;504005;235;27757;-73
2023/12/11 09:44:10;;;;;;;8.10;2.43;;;10.30;99.90;;;;;;502735;236;27845;-72
2023/12/11 09:46:12;;;;;;;10.77;2.20;;;10.20;99.90;;;;;;502862;236;28163;-73
2023/12/11 09:48:13;;;;;;;14.77;3.03;;;10.20;99.90;;;;;;502676;236;27941;-74
2023/12/11 09:50:14;;;;;;;13.00;3.13;;;10.20;99.90;;;;;;502769;236;27823;-73
2023/12/11 09:52:15;;;;;;;14.87;3.23;;;10.30;99.90;;;;;;502802;236;28294;-73
2023/12/11 09:54:18;;;;;;;6.80;2.27;;;10.40;99.90;;;;;;502801;236;28405;-73
2023/12/11 09:56:20;;;;;;;12.20;3.50;;;10.40;99.90;;;;;;502826;236;27835;-73
2023/12/11 09:58:21;;;;;;;17.13;3.80;;;10.50;99.90;;;;;;502802;236;27846;-73
2023/12/11 10:00:22;;;;;;;12.80;3.03;;;10.50;99.90;;;;;;502841;236;28067;-72
2023/12/11 10:02:25;;;;;;;13.20;3.13;;;10.50;99.90;;;;;;502803;236;28026;-72
2023/12/11 10:04:25;;;;;;;18.13;4.07;;;10.50;99.90;;;;;;502647;236;28168;-72
2023/12/11 10:06:26;;;;;;;17.60;3.40;;;10.60;99.90;;;;;;502743;236;27905;-73
2023/12/11 10:08:28;;;;;;;17.73;3.00;;;10.60;99.90;;;;;;502797;236;27798;-74
2023/12/11 10:10:33;;;;;;;6.67;2.43;;;10.60;99.90;;;;;;502722;236;28441;-72
2023/12/11 10:12:34;;;;;;;16.17;3.00;;;10.60;99.90;;;;;;502746;236;27940;-73
2023/12/11 10:14:37;;;;;;;13.97;3.60;;;10.60;99.90;;;;;;502687;236;27875;-72
2023/12/11 10:16:36;;;;;;;16.57;7.10;;;10.60;99.90;;;;;;502680;236;27705;-72
2023/12/11 10:18:37;;;;;;;11.03;3.70;;;10.50;99.90;;;;;;502764;236;27898;-74
2023/12/11 10:20:39;;;;;;;21.03;4.17;;;10.50;99.90;;;;;;502774;236;27883;-72
2023/12/11 10:22:40;;;;;;;16.03;3.30;;;10.50;99.90;;;;;;502760;236;27952;-73
2023/12/11 10:24:41;;;;;;;11.53;2.90;;;10.50;99.90;;;;;;502731;236;27853;-72
2023/12/11 10:26:42;;;;;;;19.73;3.50;;;10.40;99.90;;;;;;502787;236;28644;-73
2023/12/11 10:28:44;;;;;;;19.23;3.37;;;10.50;99.90;;;;;;505607;235;28276;-74
2023/12/11 10:30:45;;;;;;;20.87;3.10;;;10.40;99.90;;;;;;506282;234;27764;-72
2023/12/11 10:32:46;;;;;;;12.90;3.23;;;10.40;99.90;;;;;;504729;234;27989;-72
2023/12/11 10:34:50;;;;;;;13.43;3.33;;;10.40;99.90;;;;;;502147;236;27997;-72
2023/12/11 10:36:49;;;;;;;8.30;2.50;;;10.40;99.90;;;;;;502097;236;27899;-73